createdAt,value
2022-08-19T00:00:45.087Z,1011.72
2022-08-19T00:01:45.218Z,1011.75
2022-08-19T00:02:49.895Z,1011.72
2022-08-19T00:03:45.631Z,1011.71
2022-08-19T00:04:45.763Z,1011.67
2022-08-19T00:05:45.893Z,1011.65
2022-08-19T00:06:46.181Z,1011.61
2022-08-19T00:07:46.218Z,1011.59
2022-08-19T00:08:46.482Z,1011.48
2022-08-19T00:09:46.540Z,1011.43
2022-08-19T00:10:46.707Z,1011.39
2022-08-19T00:11:47.001Z,1011.39
2022-08-19T00:12:47.229Z,1011.37
2022-08-19T00:13:47.209Z,1011.30
2022-08-19T00:14:47.455Z,1011.29
2022-08-19T00:15:47.596Z,1011.24
2022-08-19T00:16:47.721Z,1011.20
2022-08-19T00:17:47.922Z,1011.18
2022-08-19T00:18:48.090Z,1011.07
2022-08-19T00:19:48.220Z,1011.07
2022-08-19T00:20:48.381Z,1010.99
2022-08-19T00:21:48.628Z,1010.98
2022-08-19T00:22:48.800Z,1011.00
2022-08-19T00:23:48.890Z,1011.00
2022-08-19T00:24:50.891Z,1011.04
2022-08-19T00:25:49.271Z,1011.13
2022-08-19T00:26:49.481Z,1011.21
2022-08-19T00:27:49.723Z,1011.30
2022-08-19T00:28:49.833Z,1011.29
2022-08-19T00:29:52.603Z,1011.38
2022-08-19T00:30:50.193Z,1011.41
2022-08-19T00:31:50.784Z,1011.43
2022-08-19T00:32:50.623Z,1011.49
2022-08-19T00:33:50.696Z,1011.46
2022-08-19T00:34:50.853Z,1011.50
2022-08-19T00:35:56.003Z,1011.46
2022-08-19T00:36:52.249Z,1011.45
2022-08-19T00:37:51.371Z,1011.46
2022-08-19T00:38:51.639Z,1011.45
2022-08-19T00:39:51.818Z,1011.44
2022-08-19T00:40:51.942Z,1011.42
2022-08-19T00:41:52.115Z,1011.40
2022-08-19T00:42:52.459Z,1011.40
2022-08-19T00:43:52.433Z,1011.42
2022-08-19T00:44:52.634Z,1011.39
2022-08-19T00:45:52.865Z,1011.39
2022-08-19T00:46:55.580Z,1011.38
2022-08-19T00:47:54.154Z,1011.37
2022-08-19T00:48:53.396Z,1011.40
2022-08-19T00:49:53.481Z,1011.37
2022-08-19T00:50:53.661Z,1011.32
2022-08-19T00:51:53.922Z,1011.33
2022-08-19T00:52:54.093Z,1011.29
2022-08-19T00:53:54.164Z,1011.28
2022-08-19T00:54:54.444Z,1011.29
2022-08-19T00:55:54.608Z,1011.27
2022-08-19T00:56:54.724Z,1011.25
2022-08-19T00:57:54.924Z,1011.20
2022-08-19T00:58:55.101Z,1011.21
2022-08-19T01:00:01.879Z,1011.19
2022-08-19T01:00:56.404Z,1011.18
2022-08-19T01:01:55.689Z,1011.18
2022-08-19T01:02:55.737Z,1011.17
2022-08-19T01:03:57.043Z,1011.20
2022-08-19T01:04:56.148Z,1011.12
2022-08-19T01:05:56.254Z,1011.14
2022-08-19T01:06:56.375Z,1011.14
2022-08-19T01:07:56.545Z,1011.14
2022-08-19T01:08:56.707Z,1011.22
2022-08-19T01:09:56.978Z,1011.26
2022-08-19T01:10:57.069Z,1011.29
2022-08-19T01:11:57.236Z,1011.34
2022-08-19T01:12:57.478Z,1011.36
2022-08-19T01:13:57.601Z,1011.40
2022-08-19T01:14:57.756Z,1011.40
2022-08-19T01:15:58.058Z,1011.43
2022-08-19T01:16:58.173Z,1011.45
2022-08-19T01:17:58.293Z,1011.44
2022-08-19T01:18:58.468Z,1011.46
2022-08-19T01:19:58.693Z,1011.46
2022-08-19T01:20:58.826Z,1011.43
2022-08-19T01:21:58.988Z,1011.41
2022-08-19T01:23:00.242Z,1011.39
2022-08-19T01:23:59.341Z,1011.48
2022-08-19T01:24:59.501Z,1011.50
2022-08-19T01:25:59.779Z,1011.49
2022-08-19T01:26:59.846Z,1011.57
2022-08-19T01:28:02.156Z,1011.60
2022-08-19T01:29:01.288Z,1011.62
2022-08-19T01:30:00.402Z,1011.60
2022-08-19T01:31:00.560Z,1011.61
2022-08-19T01:32:00.799Z,1011.62
2022-08-19T01:33:00.895Z,1011.59
2022-08-19T01:34:01.045Z,1011.61
2022-08-19T01:35:01.243Z,1011.64
2022-08-19T01:36:01.431Z,1011.61
2022-08-19T01:37:01.550Z,1011.60
2022-08-19T01:38:01.708Z,1011.64
2022-08-19T01:39:01.928Z,1011.70
2022-08-19T01:40:04.379Z,1011.69
2022-08-19T01:41:03.249Z,1011.70
2022-08-19T01:42:03.421Z,1011.74
2022-08-19T01:43:02.604Z,1011.78
2022-08-19T01:44:13.781Z,1011.79
2022-08-19T01:45:03.970Z,1011.77
2022-08-19T01:46:03.130Z,1011.78
2022-08-19T01:47:03.290Z,1011.80
2022-08-19T01:48:03.450Z,1011.76
2022-08-19T01:49:03.661Z,1011.77
2022-08-19T01:50:03.800Z,1011.75
2022-08-19T01:51:04.001Z,1011.73
2022-08-19T01:52:04.179Z,1011.77
2022-08-19T01:53:06.988Z,1011.78
2022-08-19T01:54:04.511Z,1011.79
2022-08-19T01:55:04.718Z,1011.83
2022-08-19T01:56:04.849Z,1011.85
2022-08-19T01:57:05.001Z,1011.83
2022-08-19T01:58:05.247Z,1011.80
2022-08-19T01:59:05.361Z,1011.76
2022-08-19T02:00:05.561Z,1011.73
2022-08-19T02:01:05.823Z,1011.70
2022-08-19T02:02:05.971Z,1011.68
2022-08-19T02:03:06.072Z,1011.63
2022-08-19T02:04:06.261Z,1011.64
2022-08-19T02:05:06.515Z,1011.59
2022-08-19T02:06:06.612Z,1011.54
2022-08-19T02:07:06.761Z,1011.54
2022-08-19T02:08:07.051Z,1011.43
2022-08-19T02:09:07.122Z,1011.42
2022-08-19T02:10:09.429Z,1011.47
2022-08-19T02:11:08.487Z,1011.45
2022-08-19T02:12:07.622Z,1011.39
2022-08-19T02:13:07.856Z,1011.40
2022-08-19T02:14:08.006Z,1011.29
2022-08-19T02:15:08.154Z,1011.27
2022-08-19T02:16:08.383Z,1011.26
2022-08-19T02:17:08.556Z,1011.32
2022-08-19T02:18:08.704Z,1011.33
2022-08-19T02:19:08.865Z,1011.31
2022-08-19T02:20:09.093Z,1011.34
2022-08-19T02:21:09.223Z,1011.34
2022-08-19T02:22:09.383Z,1011.35
2022-08-19T02:23:13.853Z,1011.31
2022-08-19T02:24:10.724Z,1011.36
2022-08-19T02:25:09.904Z,1011.38
2022-08-19T02:26:10.225Z,1011.27
2022-08-19T02:27:10.277Z,1011.21
2022-08-19T02:28:10.443Z,1011.14
2022-08-19T02:29:10.652Z,1011.05
2022-08-19T02:30:14.154Z,1011.04
2022-08-19T02:31:10.974Z,1011.02
2022-08-19T02:32:11.114Z,1011.05
2022-08-19T02:33:11.340Z,1011.11
2022-08-19T02:34:11.445Z,1011.15
2022-08-19T02:35:12.313Z,1011.10
2022-08-19T02:36:11.846Z,1011.03
2022-08-19T02:37:11.945Z,1010.93
2022-08-19T02:38:12.144Z,1010.84
2022-08-19T02:39:12.396Z,1010.83
2022-08-19T02:40:12.857Z,1010.80
2022-08-19T02:41:12.652Z,1010.79
2022-08-19T02:42:12.897Z,1010.76
2022-08-19T02:43:12.994Z,1010.69
2022-08-19T02:44:29.689Z,1010.58
2022-08-19T02:45:14.376Z,1010.48
2022-08-19T02:46:13.570Z,1010.45
2022-08-19T02:47:13.685Z,1010.49
2022-08-19T02:48:21.475Z,1010.41
2022-08-19T02:49:15.025Z,1010.41
2022-08-19T02:50:14.308Z,1010.39
2022-08-19T02:51:14.375Z,1010.39
2022-08-19T02:52:14.545Z,1010.38
2022-08-19T02:53:14.779Z,1010.47
2022-08-19T02:54:14.889Z,1010.54
2022-08-19T02:55:15.058Z,1010.59
2022-08-19T02:56:15.226Z,1010.64
2022-08-19T02:57:15.379Z,1010.64
2022-08-19T02:58:15.665Z,1010.62
2022-08-19T02:59:15.739Z,1010.55
2022-08-19T03:00:15.906Z,1010.59
2022-08-19T03:01:16.120Z,1010.52
2022-08-19T03:02:16.276Z,1010.51
2022-08-19T03:03:16.434Z,1010.52
2022-08-19T03:04:16.669Z,1010.55
2022-08-19T03:05:16.819Z,1010.62
2022-08-19T03:06:17.019Z,1010.62
2022-08-19T03:07:17.181Z,1010.65
2022-08-19T03:08:17.327Z,1010.64
2022-08-19T03:09:17.485Z,1010.65
2022-08-19T03:10:17.774Z,1010.68
2022-08-19T03:11:17.833Z,1010.81
2022-08-19T03:12:18.027Z,1010.77
2022-08-19T03:13:18.260Z,1010.82
2022-08-19T03:14:18.376Z,1010.78
2022-08-19T03:15:18.548Z,1010.81
2022-08-19T03:16:18.801Z,1010.79
2022-08-19T03:17:18.869Z,1010.77
2022-08-19T03:18:19.029Z,1010.84
2022-08-19T03:19:19.270Z,1010.76
2022-08-19T03:20:19.406Z,1010.70
2022-08-19T03:21:19.548Z,1010.66
2022-08-19T03:22:19.752Z,1010.59
2022-08-19T03:23:19.898Z,1010.57
2022-08-19T03:24:20.188Z,1010.56
2022-08-19T03:25:20.298Z,1010.57
2022-08-19T03:26:20.439Z,1010.58
2022-08-19T03:27:20.621Z,1010.57
2022-08-19T03:28:20.837Z,1010.55
2022-08-19T03:29:30.328Z,1010.57
2022-08-19T03:30:23.367Z,1010.60
2022-08-19T03:31:44.283Z,1010.57
2022-08-19T03:32:32.978Z,1010.53
2022-08-19T03:33:27.591Z,1010.53
2022-08-19T03:34:22.892Z,1010.47
2022-08-19T03:35:22.000Z,1010.48
2022-08-19T03:36:22.171Z,1010.43
2022-08-19T03:37:22.432Z,1010.42
2022-08-19T03:38:22.524Z,1010.41
2022-08-19T03:39:22.715Z,1010.49
2022-08-19T03:40:22.905Z,1010.50
2022-08-19T03:41:23.070Z,1010.49
2022-08-19T03:42:38.826Z,1010.54
2022-08-19T03:43:24.459Z,1010.50
2022-08-19T03:44:23.632Z,1010.51
2022-08-19T03:45:23.814Z,1010.47
2022-08-19T03:46:24.004Z,1010.48
2022-08-19T03:47:24.134Z,1010.43
2022-08-19T03:48:24.351Z,1010.41
2022-08-19T03:49:27.093Z,1010.42
2022-08-19T03:50:24.672Z,1010.41
2022-08-19T03:51:31.152Z,1010.39
2022-08-19T03:52:26.041Z,1010.40
2022-08-19T03:53:25.231Z,1010.32
2022-08-19T03:54:25.541Z,1010.29
2022-08-19T03:55:25.590Z,1010.27
2022-08-19T03:56:25.752Z,1010.27
2022-08-19T03:57:31.800Z,1010.25
2022-08-19T03:58:27.124Z,1010.23
2022-08-19T03:59:26.312Z,1010.28
2022-08-19T04:00:26.584Z,1010.35
2022-08-19T04:01:33.048Z,1010.31
2022-08-19T04:02:27.822Z,1010.34
2022-08-19T04:03:27.011Z,1010.31
2022-08-19T04:04:29.051Z,1010.30
2022-08-19T04:05:27.825Z,1010.32
2022-08-19T04:06:27.543Z,1010.38
2022-08-19T04:07:27.726Z,1010.41
2022-08-19T04:08:27.863Z,1010.40
2022-08-19T04:09:28.075Z,1010.48
2022-08-19T04:10:28.281Z,1010.48
2022-08-19T04:11:43.181Z,1010.54
2022-08-19T04:12:29.533Z,1010.63
2022-08-19T04:13:28.803Z,1010.59
2022-08-19T04:14:28.950Z,1010.63
2022-08-19T04:15:29.094Z,1010.61
2022-08-19T04:16:34.985Z,1010.62
2022-08-19T04:17:30.434Z,1010.64
2022-08-19T04:18:32.563Z,1010.66
2022-08-19T04:19:30.775Z,1010.69
2022-08-19T04:20:29.927Z,1010.63
2022-08-19T04:21:30.196Z,1010.65
2022-08-19T04:22:30.311Z,1010.65
2022-08-19T04:23:30.474Z,1010.62
2022-08-19T04:24:30.808Z,1010.64
2022-08-19T04:25:30.845Z,1010.64
2022-08-19T04:26:31.113Z,1010.65
2022-08-19T04:27:31.213Z,1010.66
2022-08-19T04:28:31.354Z,1010.62
2022-08-19T04:29:31.581Z,1010.64
2022-08-19T04:30:31.763Z,1010.69
2022-08-19T04:31:31.865Z,1010.72
2022-08-19T04:32:32.069Z,1010.68
2022-08-19T04:33:32.185Z,1010.74
2022-08-19T04:34:32.393Z,1010.75
2022-08-19T04:35:32.598Z,1010.78
2022-08-19T04:36:32.723Z,1010.80
2022-08-19T04:37:35.344Z,1010.79
2022-08-19T04:38:33.187Z,1010.80
2022-08-19T04:39:33.322Z,1010.84
2022-08-19T04:40:33.456Z,1010.85
2022-08-19T04:41:33.706Z,1010.82
2022-08-19T04:42:33.829Z,1010.85
2022-08-19T04:43:33.977Z,1010.82
2022-08-19T04:44:35.129Z,1010.84
2022-08-19T04:45:39.496Z,1010.93
2022-08-19T04:46:40.065Z,1010.84
2022-08-19T04:47:47.443Z,1010.85
2022-08-19T04:48:35.932Z,1010.84
2022-08-19T04:49:36.028Z,1010.82
2022-08-19T04:50:35.184Z,1010.81
2022-08-19T04:51:35.439Z,1010.85
2022-08-19T04:52:35.537Z,1010.86
2022-08-19T04:53:37.778Z,1010.86
2022-08-19T04:54:38.285Z,1010.86
2022-08-19T04:55:38.316Z,1010.93
2022-08-19T04:56:36.251Z,1010.92
2022-08-19T04:57:36.509Z,1010.85
2022-08-19T04:58:36.635Z,1010.88
2022-08-19T04:59:36.808Z,1010.86
2022-08-19T05:00:37.044Z,1010.81
2022-08-19T05:01:37.170Z,1010.84
2022-08-19T05:02:37.296Z,1010.86
2022-08-19T05:03:37.479Z,1010.84
2022-08-19T05:04:37.758Z,1010.80
2022-08-19T05:05:45.205Z,1010.80
2022-08-19T05:06:39.017Z,1010.73
2022-08-19T05:07:38.198Z,1010.73
2022-08-19T05:08:38.371Z,1010.68
2022-08-19T05:09:55.347Z,1010.67
2022-08-19T05:10:39.711Z,1010.66
2022-08-19T05:11:38.971Z,1010.64
2022-08-19T05:12:39.060Z,1010.69
2022-08-19T05:13:39.241Z,1010.66
2022-08-19T05:14:39.549Z,1010.63
2022-08-19T05:15:39.589Z,1010.64
2022-08-19T05:16:39.770Z,1010.66
2022-08-19T05:17:40.031Z,1010.64
2022-08-19T05:18:40.134Z,1010.65
2022-08-19T05:19:40.322Z,1010.59
2022-08-19T05:20:40.545Z,1010.57
2022-08-19T05:21:40.662Z,1010.54
2022-08-19T05:22:40.830Z,1010.55
2022-08-19T05:23:41.020Z,1010.55
2022-08-19T05:24:56.400Z,1010.54
2022-08-19T05:25:42.361Z,1010.62
2022-08-19T05:26:41.532Z,1010.62
2022-08-19T05:27:41.794Z,1010.66
2022-08-19T05:28:41.884Z,1010.66
2022-08-19T05:29:42.162Z,1010.71
2022-08-19T05:30:47.111Z,1010.77
2022-08-19T05:31:43.416Z,1010.82
2022-08-19T05:32:42.681Z,1010.82
2022-08-19T05:33:42.771Z,1010.75
2022-08-19T05:34:42.962Z,1010.80
2022-08-19T05:35:43.204Z,1010.80
2022-08-19T05:36:43.308Z,1010.81
2022-08-19T05:37:43.452Z,1010.84
2022-08-19T05:38:43.705Z,1010.83
2022-08-19T05:39:46.460Z,1010.94
2022-08-19T05:40:43.983Z,1010.95
2022-08-19T05:41:44.183Z,1010.95
2022-08-19T05:42:44.399Z,1011.05
2022-08-19T05:43:45.543Z,1011.02
2022-08-19T05:44:44.747Z,1011.09
2022-08-19T05:45:44.986Z,1011.07
2022-08-19T05:46:45.079Z,1011.11
2022-08-19T05:47:45.244Z,1011.11
2022-08-19T05:48:45.506Z,1011.11
2022-08-19T05:49:45.625Z,1011.09
2022-08-19T05:50:45.826Z,1011.09
2022-08-19T05:51:45.959Z,1011.15
2022-08-19T05:52:50.146Z,1011.15
2022-08-19T05:53:46.417Z,1011.16
2022-08-19T05:54:46.525Z,1011.14
2022-08-19T05:55:46.684Z,1011.12
2022-08-19T05:56:46.890Z,1011.12
2022-08-19T05:57:47.056Z,1011.06
2022-08-19T05:58:47.196Z,1011.06
2022-08-19T05:59:47.385Z,1011.05
2022-08-19T06:00:47.576Z,1011.07
2022-08-19T06:01:47.732Z,1010.94
2022-08-19T06:02:47.988Z,1010.94
2022-08-19T06:03:48.141Z,1010.91
2022-08-19T06:04:48.279Z,1010.87
2022-08-19T06:05:51.695Z,1010.81
2022-08-19T06:06:48.687Z,1010.80
2022-08-19T06:07:48.785Z,1010.80
2022-08-19T06:08:48.957Z,1010.77
2022-08-19T06:10:00.448Z,1010.76
2022-08-19T06:10:50.327Z,1010.74
2022-08-19T06:11:51.815Z,1010.76
2022-08-19T06:12:49.697Z,1010.75
2022-08-19T06:13:49.883Z,1010.73
2022-08-19T06:15:00.640Z,1010.71
2022-08-19T06:15:51.309Z,1010.70
2022-08-19T06:16:50.399Z,1010.68
2022-08-19T06:17:50.581Z,1010.70
2022-08-19T06:18:50.817Z,1010.74
2022-08-19T06:19:50.958Z,1010.70
2022-08-19T06:20:58.195Z,1010.73
2022-08-19T06:21:52.380Z,1010.78
2022-08-19T06:22:51.485Z,1010.77
2022-08-19T06:23:51.667Z,1010.80
2022-08-19T06:24:51.960Z,1010.81
2022-08-19T06:25:52.010Z,1010.90
2022-08-19T06:26:52.278Z,1010.85
2022-08-19T06:28:13.905Z,1010.95
2022-08-19T06:28:53.529Z,1011.01
2022-08-19T06:29:52.728Z,1011.01
2022-08-19T06:30:52.860Z,1011.06
2022-08-19T06:31:53.029Z,1011.10
2022-08-19T06:32:53.190Z,1011.12
2022-08-19T06:33:53.360Z,1011.15
2022-08-19T06:34:53.559Z,1011.13
2022-08-19T06:35:53.711Z,1011.18
2022-08-19T06:36:53.870Z,1011.20
2022-08-19T06:37:54.039Z,1011.21
2022-08-19T06:38:54.201Z,1011.24
2022-08-19T06:39:54.409Z,1011.25
2022-08-19T06:40:54.531Z,1011.24
2022-08-19T06:41:58.151Z,1011.27
2022-08-19T06:42:55.530Z,1011.27
2022-08-19T06:43:55.736Z,1011.24
2022-08-19T06:44:55.220Z,1011.23
2022-08-19T06:45:55.362Z,1011.24
2022-08-19T06:46:55.532Z,1011.16
2022-08-19T06:47:55.703Z,1011.12
2022-08-19T06:48:55.879Z,1011.12
2022-08-19T06:49:56.061Z,1011.11
2022-08-19T06:50:57.241Z,1011.14
2022-08-19T06:51:56.417Z,1011.12
2022-08-19T06:52:56.705Z,1011.06
2022-08-19T06:53:56.746Z,1011.03
2022-08-19T06:54:57.010Z,1010.99
2022-08-19T06:55:57.093Z,1011.04
2022-08-19T06:56:57.255Z,1011.03
2022-08-19T06:57:57.517Z,1010.95
2022-08-19T06:58:57.586Z,1010.98
2022-08-19T06:59:57.767Z,1010.93
2022-08-19T07:00:58.007Z,1010.93
2022-08-19T07:01:58.102Z,1010.94
2022-08-19T07:03:01.878Z,1010.95
2022-08-19T07:03:59.447Z,1010.96
2022-08-19T07:04:58.637Z,1010.97
2022-08-19T07:05:58.767Z,1010.94
2022-08-19T07:06:58.927Z,1010.98
2022-08-19T07:08:04.596Z,1011.00
2022-08-19T07:09:00.257Z,1010.98
2022-08-19T07:10:01.821Z,1010.99
2022-08-19T07:10:59.678Z,1011.03
2022-08-19T07:11:59.766Z,1011.03
2022-08-19T07:13:00.011Z,1011.04
2022-08-19T07:14:00.127Z,1011.00
2022-08-19T07:15:00.306Z,1011.03
2022-08-19T07:16:00.569Z,1011.01
2022-08-19T07:17:01.658Z,1011.00
2022-08-19T07:18:00.846Z,1011.04
2022-08-19T07:19:11.801Z,1011.01
2022-08-19T07:20:05.547Z,1011.03
2022-08-19T07:21:01.359Z,1011.08
2022-08-19T07:22:01.623Z,1011.09
2022-08-19T07:23:01.737Z,1011.13
2022-08-19T07:24:05.392Z,1011.20
2022-08-19T07:25:02.119Z,1011.20
2022-08-19T07:27:02.451Z,1011.23
2022-08-19T07:28:02.640Z,1011.28
2022-08-19T07:29:02.884Z,1011.29
2022-08-19T07:30:03.008Z,1011.29
2022-08-19T07:31:03.141Z,1011.29
2022-08-19T07:32:03.368Z,1011.30
2022-08-19T07:33:03.747Z,1011.37
2022-08-19T07:34:03.632Z,1011.39
2022-08-19T07:35:03.918Z,1011.40
2022-08-19T07:36:04.002Z,1011.41
2022-08-19T07:37:04.183Z,1011.46
2022-08-19T07:38:04.373Z,1011.48
2022-08-19T07:39:04.561Z,1011.51
2022-08-19T07:40:04.757Z,1011.55
2022-08-19T07:41:04.913Z,1011.53
2022-08-19T07:42:05.041Z,1011.53
2022-08-19T07:43:05.223Z,1011.51
2022-08-19T07:44:05.491Z,1011.53
2022-08-19T07:45:05.573Z,1011.44
2022-08-19T07:46:05.783Z,1011.45
2022-08-19T07:47:05.913Z,1011.42
2022-08-19T07:48:06.248Z,1011.45
2022-08-19T07:49:06.303Z,1011.50
2022-08-19T07:50:06.443Z,1011.45
2022-08-19T07:51:06.643Z,1011.48
2022-08-19T07:52:06.811Z,1011.48
2022-08-19T07:53:06.984Z,1011.48
2022-08-19T07:54:07.183Z,1011.52
2022-08-19T07:55:07.390Z,1011.57
2022-08-19T07:56:08.504Z,1011.58
2022-08-19T07:57:07.688Z,1011.54
2022-08-19T07:58:07.923Z,1011.57
2022-08-19T07:59:08.027Z,1011.55
2022-08-19T08:00:08.176Z,1011.58
2022-08-19T08:01:08.437Z,1011.58
2022-08-19T08:02:08.600Z,1011.54
2022-08-19T08:03:08.705Z,1011.52
2022-08-19T08:04:08.916Z,1011.54
2022-08-19T08:05:09.055Z,1011.55
2022-08-19T08:06:09.324Z,1011.56
2022-08-19T08:07:09.420Z,1011.65
2022-08-19T08:08:09.596Z,1011.66
2022-08-19T08:09:09.955Z,1011.68
2022-08-19T08:10:20.650Z,1011.69
2022-08-19T08:11:11.165Z,1011.71
2022-08-19T08:12:33.076Z,1011.68
2022-08-19T08:13:11.644Z,1011.69
2022-08-19T08:14:29.288Z,1011.71
2022-08-19T08:15:12.415Z,1011.71
2022-08-19T08:16:14.119Z,1011.65
2022-08-19T08:17:11.208Z,1011.69
2022-08-19T08:18:11.446Z,1011.73
2022-08-19T08:19:12.586Z,1011.74
2022-08-19T08:20:12.708Z,1011.73
2022-08-19T08:21:12.025Z,1011.78
2022-08-19T08:22:12.079Z,1011.81
2022-08-19T08:23:12.336Z,1011.79
2022-08-19T08:24:12.448Z,1011.77
2022-08-19T08:25:12.590Z,1011.73
2022-08-19T08:26:12.869Z,1011.75
2022-08-19T08:27:12.971Z,1011.74
2022-08-19T08:28:17.914Z,1011.72
2022-08-19T08:29:14.399Z,1011.73
2022-08-19T08:30:13.483Z,1011.66
2022-08-19T08:31:13.660Z,1011.64
2022-08-19T08:32:15.014Z,1011.60
2022-08-19T08:33:14.021Z,1011.57
2022-08-19T08:34:14.245Z,1011.60
2022-08-19T08:35:14.387Z,1011.60
2022-08-19T08:36:14.564Z,1011.60
2022-08-19T08:37:16.130Z,1011.62
2022-08-19T08:38:14.993Z,1011.64
2022-08-19T08:39:15.134Z,1011.62
2022-08-19T08:40:15.387Z,1011.60
2022-08-19T08:41:15.492Z,1011.69
2022-08-19T08:42:17.529Z,1011.71
2022-08-19T08:43:15.916Z,1011.70
2022-08-19T08:44:16.027Z,1011.72
2022-08-19T08:45:16.186Z,1011.79
2022-08-19T08:46:30.519Z,1011.76
2022-08-19T08:47:17.504Z,1011.83
2022-08-19T08:48:22.079Z,1011.79
2022-08-19T08:49:17.923Z,1011.74
2022-08-19T08:50:17.024Z,1011.73
2022-08-19T08:51:20.389Z,1011.73
2022-08-19T08:52:17.478Z,1011.73
2022-08-19T08:53:17.589Z,1011.70
2022-08-19T08:54:18.735Z,1011.75
2022-08-19T08:55:17.946Z,1011.77
2022-08-19T08:56:18.430Z,1011.80
2022-08-19T08:57:18.265Z,1011.83
2022-08-19T08:58:18.464Z,1011.85
2022-08-19T08:59:18.662Z,1011.80
2022-08-19T09:00:18.850Z,1011.88
2022-08-19T09:01:19.035Z,1011.90
2022-08-19T09:02:19.174Z,1011.90
2022-08-19T09:03:19.326Z,1011.92
2022-08-19T09:04:19.485Z,1011.91
2022-08-19T09:05:22.299Z,1011.88
2022-08-19T09:06:19.796Z,1011.92
2022-08-19T09:07:34.791Z,1011.94
2022-08-19T09:08:21.294Z,1011.92
2022-08-19T09:09:20.363Z,1011.97
2022-08-19T09:10:20.544Z,1011.92
2022-08-19T09:11:42.527Z,1011.98
2022-08-19T09:12:26.937Z,1012.02
2022-08-19T09:13:22.047Z,1012.03
2022-08-19T09:14:48.875Z,1011.99
2022-08-19T09:15:22.421Z,1012.00
2022-08-19T09:16:27.953Z,1011.96
2022-08-19T09:17:22.718Z,1011.99
2022-08-19T09:18:21.985Z,1011.98
2022-08-19T09:19:22.362Z,1011.96
2022-08-19T09:20:22.238Z,1011.93
2022-08-19T09:21:25.708Z,1011.91
2022-08-19T09:22:25.976Z,1011.92
2022-08-19T09:23:26.926Z,1011.95
2022-08-19T09:24:23.020Z,1011.99
2022-08-19T09:25:27.120Z,1011.98
2022-08-19T09:26:24.307Z,1011.98
2022-08-19T09:27:42.476Z,1011.97
2022-08-19T09:28:26.964Z,1012.00
2022-08-19T09:29:23.906Z,1012.02
2022-08-19T09:30:24.026Z,1012.02
2022-08-19T09:31:24.160Z,1012.01
2022-08-19T09:32:26.240Z,1012.00
2022-08-19T09:33:24.574Z,1011.99
2022-08-19T09:34:24.680Z,1012.02
2022-08-19T09:35:24.895Z,1011.96
2022-08-19T09:36:34.490Z,1012.01
2022-08-19T09:37:26.204Z,1012.02
2022-08-19T09:38:25.462Z,1012.00
2022-08-19T09:39:25.541Z,1012.05
2022-08-19T09:40:26.755Z,1012.00
2022-08-19T09:41:25.937Z,1011.96
2022-08-19T09:42:29.957Z,1011.92
2022-08-19T09:43:33.197Z,1011.88
2022-08-19T09:44:27.432Z,1011.90
2022-08-19T09:45:26.600Z,1011.84
2022-08-19T09:46:26.814Z,1011.86
2022-08-19T09:47:26.941Z,1011.84
2022-08-19T09:48:27.112Z,1011.87
2022-08-19T09:49:27.330Z,1011.85
2022-08-19T09:50:27.427Z,1011.85
2022-08-19T09:51:27.583Z,1011.88
2022-08-19T09:52:32.830Z,1011.90
2022-08-19T09:53:28.954Z,1011.88
2022-08-19T09:54:28.200Z,1011.89
2022-08-19T09:55:31.950Z,1011.96
2022-08-19T09:56:28.547Z,1011.88
2022-08-19T09:57:28.649Z,1011.93
2022-08-19T09:58:28.840Z,1011.96
2022-08-19T09:59:29.079Z,1011.97
2022-08-19T10:00:29.206Z,1012.00
2022-08-19T10:01:29.398Z,1012.02
2022-08-19T10:02:29.520Z,1012.02
2022-08-19T10:03:30.147Z,1011.93
2022-08-19T10:04:29.836Z,1012.03
2022-08-19T10:05:30.056Z,1011.99
2022-08-19T10:06:43.990Z,1012.00
2022-08-19T10:07:36.526Z,1012.02
2022-08-19T10:08:31.626Z,1011.97
2022-08-19T10:09:34.423Z,1011.98
2022-08-19T10:10:30.926Z,1011.99
2022-08-19T10:11:39.507Z,1012.01
2022-08-19T10:12:32.196Z,1011.99
2022-08-19T10:13:31.882Z,1011.95
2022-08-19T10:14:31.557Z,1011.98
2022-08-19T10:15:31.827Z,1011.99
2022-08-19T10:16:32.919Z,1011.99
2022-08-19T10:17:33.542Z,1011.99
2022-08-19T10:18:32.394Z,1011.98
2022-08-19T10:19:32.506Z,1012.00
2022-08-19T10:20:32.628Z,1012.01
2022-08-19T10:21:32.818Z,1011.98
2022-08-19T10:22:33.027Z,1011.97
2022-08-19T10:23:33.643Z,1011.92
2022-08-19T10:24:33.351Z,1011.88
2022-08-19T10:25:33.637Z,1011.90
2022-08-19T10:26:33.709Z,1011.89
2022-08-19T10:27:33.879Z,1011.90
2022-08-19T10:28:34.138Z,1011.88
2022-08-19T10:29:34.288Z,1011.89
2022-08-19T10:30:34.491Z,1011.87
2022-08-19T10:32:00.898Z,1011.85
2022-08-19T10:32:35.800Z,1011.85
2022-08-19T10:33:53.038Z,1011.84
2022-08-19T10:34:36.162Z,1011.87
2022-08-19T10:35:42.609Z,1011.80
2022-08-19T10:36:36.472Z,1011.89
2022-08-19T10:37:36.669Z,1011.91
2022-08-19T10:38:36.839Z,1011.93
2022-08-19T10:39:42.986Z,1011.92
2022-08-19T10:40:37.161Z,1011.90
2022-08-19T10:41:36.404Z,1011.86
2022-08-19T10:42:36.539Z,1011.91
2022-08-19T10:43:36.736Z,1011.89
2022-08-19T10:44:36.966Z,1011.90
2022-08-19T10:45:37.084Z,1011.85
2022-08-19T10:46:38.263Z,1011.82
2022-08-19T10:47:37.454Z,1011.86
2022-08-19T10:48:37.642Z,1011.86
2022-08-19T10:49:37.793Z,1011.85
2022-08-19T10:50:38.038Z,1011.82
2022-08-19T10:51:38.154Z,1011.81
2022-08-19T10:52:39.342Z,1011.82
2022-08-19T10:53:39.611Z,1011.77
2022-08-19T10:54:38.674Z,1011.78
2022-08-19T10:55:38.925Z,1011.81
2022-08-19T10:56:39.019Z,1011.80
2022-08-19T10:58:01.780Z,1011.86
2022-08-19T10:58:40.435Z,1011.84
2022-08-19T10:59:39.575Z,1011.80
2022-08-19T11:00:39.693Z,1011.82
2022-08-19T11:01:39.951Z,1011.84
2022-08-19T11:02:40.111Z,1011.90
2022-08-19T11:03:40.255Z,1011.94
2022-08-19T11:04:40.424Z,1011.93
2022-08-19T11:05:40.834Z,1011.97
2022-08-19T11:06:40.779Z,1011.96
2022-08-19T11:07:40.956Z,1012.00
2022-08-19T11:08:41.209Z,1012.00
2022-08-19T11:09:41.304Z,1011.96
2022-08-19T11:10:41.483Z,1011.99
2022-08-19T11:11:42.746Z,1011.98
2022-08-19T11:12:41.852Z,1011.99
2022-08-19T11:13:42.106Z,1012.03
2022-08-19T11:14:42.195Z,1012.03
2022-08-19T11:15:42.426Z,1012.09
2022-08-19T11:16:42.535Z,1012.08
2022-08-19T11:17:42.706Z,1012.08
2022-08-19T11:18:42.947Z,1012.00
2022-08-19T11:19:43.066Z,1012.07
2022-08-19T11:20:43.236Z,1012.04
2022-08-19T11:21:43.432Z,1012.06
2022-08-19T11:22:43.596Z,1012.02
2022-08-19T11:23:43.786Z,1012.05
2022-08-19T11:24:43.967Z,1012.05
2022-08-19T11:25:44.137Z,1011.99
2022-08-19T11:26:44.307Z,1011.99
2022-08-19T11:27:44.477Z,1012.00
2022-08-19T11:28:44.718Z,1012.03
2022-08-19T11:29:44.905Z,1012.02
2022-08-19T11:30:45.025Z,1012.04
2022-08-19T11:31:45.220Z,1012.04
2022-08-19T11:32:49.196Z,1012.06
2022-08-19T11:33:47.192Z,1012.16
2022-08-19T11:34:45.869Z,1012.15
2022-08-19T11:35:45.918Z,1012.19
2022-08-19T11:36:46.089Z,1012.17
2022-08-19T11:37:46.298Z,1012.17
2022-08-19T11:38:46.458Z,1012.17
2022-08-19T11:39:46.762Z,1012.16
2022-08-19T11:40:47.800Z,1012.10
2022-08-19T11:41:46.979Z,1012.11
2022-08-19T11:42:47.204Z,1012.12
2022-08-19T11:43:47.345Z,1012.10
2022-08-19T11:44:47.519Z,1012.12
2022-08-19T11:45:47.779Z,1012.15
2022-08-19T11:46:47.905Z,1012.16
2022-08-19T11:47:48.094Z,1012.17
2022-08-19T11:48:48.318Z,1012.21
2022-08-19T11:49:48.473Z,1012.16
2022-08-19T11:50:48.660Z,1012.22
2022-08-19T11:51:48.792Z,1012.19
2022-08-19T11:52:49.028Z,1012.22
2022-08-19T11:53:49.161Z,1012.21
2022-08-19T11:54:49.310Z,1012.27
2022-08-19T11:55:49.583Z,1012.26
2022-08-19T11:56:49.672Z,1012.33
2022-08-19T11:57:49.862Z,1012.33
2022-08-19T11:58:50.042Z,1012.31
2022-08-19T11:59:50.200Z,1012.32
2022-08-19T12:00:51.423Z,1012.25
2022-08-19T12:01:50.520Z,1012.28
2022-08-19T12:02:50.683Z,1012.27
2022-08-19T12:03:51.031Z,1012.30
2022-08-19T12:04:51.034Z,1012.34
2022-08-19T12:05:51.218Z,1012.29
2022-08-19T12:06:51.441Z,1012.22
2022-08-19T12:07:51.574Z,1012.25
2022-08-19T12:08:51.752Z,1012.21